TimeEDT,TemperatureF,Dew PointF,Humidity,Sea Level PressureIn,VisibilityMPH,Wind Direction,Wind SpeedMPH,Gust SpeedMPH,PrecipitationIn,Events,Conditions,WindDirDegrees,DateUTC
12:35 AM,44.6,39.2,81,29.97,9.0,NNE,10.4,-,N/A,,Mostly Cloudy,20,2013-03-17 04:35:00
12:48 AM,42.8,39.2,87,29.97,9.0,NNE,10.4,-,N/A,,Scattered Clouds,20,2013-03-17 04:48:00
12:55 AM,43.0,38.1,83,29.97,10.0,NNE,10.4,-,N/A,,Scattered Clouds,30,2013-03-17 04:55:00
1:49 AM,41.0,37.4,87,29.96,10.0,NNE,8.1,-,N/A,,Mostly Cloudy,20,2013-03-17 05:49:00
1:55 AM,41.7,37.9,86,29.96,10.0,NNE,8.1,-,N/A,,Overcast,20,2013-03-17 05:55:00
2:24 AM,41.0,37.4,87,29.95,10.0,NE,9.2,-,N/A,,Overcast,50,2013-03-17 06:24:00
2:34 AM,41.0,37.4,87,29.95,10.0,ENE,8.1,-,N/A,,Overcast,60,2013-03-17 06:34:00
2:55 AM,41.4,37.6,86,29.97,10.0,NNE,6.9,-,N/A,,Overcast,30,2013-03-17 06:55:00
3:35 AM,41.0,37.4,87,29.99,10.0,Calm,Calm,-,N/A,,Overcast,0,2013-03-17 07:35:00
3:44 AM,41.0,37.4,87,30.00,10.0,NNW,3.5,-,N/A,,Overcast,330,2013-03-17 07:44:00
3:55 AM,41.5,37.9,87,30.01,10.0,NW,3.5,-,N/A,,Overcast,320,2013-03-17 07:55:00
3:57 AM,41.0,37.4,87,30.00,9.0,North,5.8,-,N/A,Rain,Light Rain,350,2013-03-17 07:57:00
4:13 AM,41.0,37.4,87,30.00,5.0,NNW,4.6,-,N/A,Rain,Light Rain,340,2013-03-17 08:13:00
4:55 AM,40.5,38.7,93,30.00,4.0,North,4.6,-,0.04,Rain,Light Rain,350,2013-03-17 08:55:00
5:00 AM,41.0,39.2,93,30.00,4.0,NNW,4.6,-,N/A,Rain,Light Rain,340,2013-03-17 09:00:00
5:03 AM,41.0,39.2,93,29.99,5.0,North,4.6,-,N/A,Rain,Light Rain,350,2013-03-17 09:03:00
5:13 AM,41.0,39.2,93,30.00,5.0,NNW,6.9,-,N/A,Rain,Light Rain,340,2013-03-17 09:13:00
5:41 AM,39.2,37.4,93,29.99,4.0,North,10.4,-,N/A,Rain,Light Rain,10,2013-03-17 09:41:00
5:55 AM,39.6,37.9,94,30.00,5.0,North,11.5,-,0.05,Rain,Light Rain,360,2013-03-17 09:55:00
6:55 AM,39.4,38.1,95,30.04,6.0,North,8.1,-,0.06,Rain,Light Rain,10,2013-03-17 10:55:00
7:23 AM,39.2,37.4,93,30.05,5.0,North,8.1,-,N/A,Rain,Light Rain,10,2013-03-17 11:23:00
7:48 AM,39.2,39.2,100,30.02,2.0,NNE,10.4,-,N/A,Rain,Light Rain,30,2013-03-17 11:48:00
7:55 AM,39.9,38.8,96,30.05,2.0,NE,12.7,-,0.04,Rain,Light Rain,40,2013-03-17 11:55:00
8:05 AM,39.2,39.2,100,30.04,7.0,NE,8.1,-,N/A,,Overcast,50,2013-03-17 12:05:00
8:07 AM,39.2,39.2,100,30.04,7.0,NE,9.2,-,N/A,,Overcast,50,2013-03-17 12:07:00
8:20 AM,39.2,37.4,93,30.03,2.5,NE,10.4,-,N/A,,Overcast,50,2013-03-17 12:20:00
8:35 AM,39.2,37.4,93,30.03,2.5,NE,10.4,-,N/A,,Overcast,50,2013-03-17 12:35:00
8:55 AM,38.8,36.7,92,30.05,2.5,ENE,9.2,-,0.00,,Overcast,60,2013-03-17 12:55:00
9:55 AM,37.9,36.1,93,30.07,2.0,NE,11.5,-,0.01,,Light Drizzle,40,2013-03-17 13:55:00
10:55 AM,36.7,34.9,93,30.07,3.0,ENE,9.2,-,0.01,,Overcast,60,2013-03-17 14:55:00
11:55 AM,36.1,34.5,94,30.08,2.0,NE,10.4,-,0.01,,Light Drizzle,40,2013-03-17 15:55:00
12:55 PM,35.6,34.0,94,30.07,2.0,ENE,12.7,-,0.03,,Light Drizzle,60,2013-03-17 16:55:00
1:55 PM,35.6,34.0,94,30.06,2.0,NE,9.2,-,0.03,Rain,Light Rain,50,2013-03-17 17:55:00
2:16 PM,35.6,33.8,93,30.05,2.0,North,8.1,-,N/A,Rain,Rain,10,2013-03-17 18:16:00
2:27 PM,35.6,33.8,93,30.04,1.5,NE,8.1,-,N/A,Rain,Rain,40,2013-03-17 18:27:00
2:39 PM,35.6,33.8,93,30.04,3.0,NE,8.1,-,N/A,Rain,Light Rain,50,2013-03-17 18:39:00
2:55 PM,36.0,34.5,94,30.05,3.0,ENE,8.1,-,0.14,Rain,Light Rain,60,2013-03-17 18:55:00
3:34 PM,35.6,35.6,100,30.00,4.0,NE,11.5,-,N/A,Rain,Light Rain,50,2013-03-17 19:34:00
3:55 PM,36.0,34.7,95,30.01,4.0,ENE,10.4,-,0.11,Rain,Light Rain,60,2013-03-17 19:55:00
4:55 PM,36.7,35.4,95,29.98,10.0,NE,12.7,-,0.02,,Overcast,50,2013-03-17 20:55:00
5:55 PM,36.5,35.2,95,29.97,10.0,NE,11.5,-,N/A,,Overcast,50,2013-03-17 21:55:00
6:55 PM,36.7,35.4,95,29.97,3.0,NE,9.2,-,0.01,Rain,Light Rain,50,2013-03-17 22:55:00
7:55 PM,36.5,35.2,95,29.94,5.0,ENE,11.5,-,0.07,Rain,Light Rain,60,2013-03-17 23:55:00
8:31 PM,37.4,35.6,93,29.92,4.0,NE,13.8,18.4,N/A,Rain,Light Rain,50,2013-03-18 00:31:00
8:55 PM,36.5,35.2,95,29.96,5.0,ENE,15.0,21.9,0.03,Rain,Light Rain,60,2013-03-18 00:55:00
9:55 PM,36.1,34.9,95,29.94,7.0,ENE,13.8,21.9,0.05,,Overcast,60,2013-03-18 01:55:00
10:43 PM,35.6,33.8,93,29.92,7.0,ENE,12.7,-,N/A,,Overcast,70,2013-03-18 02:43:00
10:55 PM,36.1,34.5,94,29.90,10.0,ENE,17.3,23.0,0.05,,Overcast,70,2013-03-18 02:55:00
10:59 PM,35.6,33.8,93,29.90,10.0,East,16.1,23.0,N/A,Rain,Light Rain,80,2013-03-18 02:59:00
11:11 PM,35.6,33.8,93,29.89,10.0,ENE,17.3,-,N/A,,Overcast,70,2013-03-18 03:11:00
11:55 PM,36.1,34.9,95,29.88,10.0,East,12.7,-,0.00,,Overcast,80,2013-03-18 03:55:00